Terminal Aerodrome Forecast
Issued by NWS Knoxville/Tri Cities, TN

Home | Current Version | Previous Version | Text Only | Print | Product List | Glossary On
Versions: 1 2 3 4 5 6 7 8 9 10 11 12 13 14 15 16 17 18 19 20 21 22
000
FTUS44 KMRX 071137
TAFTYS
TAF
KTYS 071137Z 0712/0812 01006KT P6SM BKN025
     FM071500 02006KT P6SM BKN035
     FM072000 36005KT P6SM SCT035 SCT080 BKN200
     FM080200 36005KT P6SM SCT030 BKN100=

USA.gov is the U.S. government's official web portal to all federal, state and local government web resources and services.